createdAt,value
2023-03-22T00:00:10.762Z,567.30
2023-03-22T00:00:21.788Z,567.31
2023-03-22T00:00:33.772Z,567.43
2023-03-22T00:00:45.755Z,567.38
2023-03-22T00:00:56.776Z,567.31
2023-03-22T00:01:08.749Z,567.30
2023-03-22T00:01:19.875Z,567.22
2023-03-22T00:01:31.764Z,567.20
2023-03-22T00:01:42.774Z,567.29
2023-03-22T00:01:53.803Z,567.30
2023-03-22T00:02:05.786Z,567.28
2023-03-22T00:02:17.832Z,567.49
2023-03-22T00:02:28.761Z,567.64
2023-03-22T00:02:39.832Z,567.58
2023-03-22T00:02:51.822Z,567.58
2023-03-22T00:03:02.842Z,567.54
2023-03-22T00:03:14.786Z,567.48
2023-03-22T00:03:26.772Z,567.41
2023-03-22T00:03:38.784Z,567.39
2023-03-22T00:03:49.764Z,567.37
2023-03-22T00:04:01.838Z,567.36
2023-03-22T00:04:12.890Z,567.34
2023-03-22T00:04:24.801Z,567.41
2023-03-22T00:04:36.759Z,567.38
2023-03-22T00:04:48.782Z,567.26
2023-03-22T00:05:00.756Z,567.14
2023-03-22T00:05:11.761Z,567.16
2023-03-22T00:05:22.783Z,567.27
2023-03-22T00:05:34.798Z,567.28
2023-03-22T00:05:46.823Z,567.33
2023-03-22T00:05:57.808Z,567.39
2023-03-22T00:06:09.793Z,567.44
2023-03-22T00:06:21.765Z,567.57
2023-03-22T00:06:33.783Z,567.59
2023-03-22T00:06:45.782Z,567.58
2023-03-22T00:06:57.755Z,567.52
2023-03-22T00:07:09.763Z,567.59
2023-03-22T00:07:20.781Z,567.65
2023-03-22T00:07:32.773Z,567.67
2023-03-22T00:07:43.769Z,567.63
2023-03-22T00:07:55.774Z,567.63
2023-03-22T00:08:07.749Z,567.64
2023-03-22T00:08:19.765Z,567.57
2023-03-22T00:08:31.752Z,567.60
2023-03-22T00:08:43.762Z,567.68
2023-03-22T00:08:55.780Z,567.68
2023-03-22T00:09:07.791Z,567.73
2023-03-22T00:09:19.776Z,567.68
2023-03-22T00:09:31.744Z,567.73
2023-03-22T00:09:42.771Z,567.75
2023-03-22T00:09:53.781Z,567.70
2023-03-22T00:10:05.795Z,567.69
2023-03-22T00:10:17.807Z,567.58
2023-03-22T00:10:29.813Z,567.50
2023-03-22T00:10:41.796Z,567.46
2023-03-22T00:10:53.806Z,567.47
2023-03-22T00:11:05.795Z,567.43
2023-03-22T00:11:17.783Z,567.53
2023-03-22T00:11:29.756Z,567.56
2023-03-22T00:11:41.765Z,567.61
2023-03-22T00:11:53.746Z,567.85
2023-03-22T00:12:04.754Z,567.95
2023-03-22T00:12:15.767Z,567.96
2023-03-22T00:12:27.755Z,567.97
2023-03-22T00:12:38.777Z,567.93
2023-03-22T00:12:50.789Z,568.01
2023-03-22T00:13:02.759Z,568.08
2023-03-22T00:13:14.748Z,568.14
2023-03-22T00:13:26.745Z,568.30
2023-03-22T00:13:37.763Z,568.38
2023-03-22T00:13:49.783Z,568.25
2023-03-22T00:14:01.787Z,568.21
2023-03-22T00:14:13.773Z,568.28
2023-03-22T00:14:25.782Z,568.31
2023-03-22T00:14:37.768Z,568.33
2023-03-22T00:14:49.779Z,568.26
2023-03-22T00:15:01.778Z,568.25
2023-03-22T00:15:12.773Z,568.31
2023-03-22T00:15:24.795Z,568.34
2023-03-22T00:15:36.772Z,568.36
2023-03-22T00:15:48.824Z,568.32
2023-03-22T00:15:59.860Z,568.31
2023-03-22T00:16:10.943Z,568.23
2023-03-22T00:16:22.839Z,568.19
2023-03-22T00:16:33.818Z,568.23
2023-03-22T00:16:44.757Z,568.32
2023-03-22T00:16:56.756Z,568.43
2023-03-22T00:17:08.780Z,568.54
2023-03-22T00:17:20.769Z,568.62
2023-03-22T00:17:32.773Z,568.70
2023-03-22T00:17:44.753Z,568.86
2023-03-22T00:17:55.750Z,568.92
2023-03-22T00:18:06.776Z,568.91
2023-03-22T00:18:18.784Z,568.87
2023-03-22T00:18:30.789Z,568.87
2023-03-22T00:18:42.808Z,568.93
2023-03-22T00:18:54.783Z,569.02
2023-03-22T00:19:06.793Z,569.04
2023-03-22T00:19:18.756Z,569.04
2023-03-22T00:19:29.756Z,569.11
2023-03-22T00:19:40.761Z,569.07
2023-03-22T00:19:52.780Z,569.06
2023-03-22T00:20:04.786Z,569.03
2023-03-22T00:20:18.494Z,569.04
2023-03-22T00:20:27.743Z,568.97
2023-03-22T00:20:39.073Z,568.82
2023-03-22T00:20:50.789Z,568.88
2023-03-22T00:21:02.785Z,568.94
2023-03-22T00:21:14.791Z,568.86
2023-03-22T00:21:26.778Z,568.84
2023-03-22T00:21:38.769Z,568.90
2023-03-22T00:21:49.776Z,568.95
2023-03-22T00:22:01.751Z,569.02
2023-03-22T00:22:13.757Z,569.03
2023-03-22T00:22:25.768Z,569.05
2023-03-22T00:22:37.751Z,569.06
2023-03-22T00:22:49.759Z,569.14
2023-03-22T00:23:00.791Z,569.15
2023-03-22T00:23:12.762Z,569.15
2023-03-22T00:23:24.752Z,569.20
2023-03-22T00:23:36.762Z,569.14
2023-03-22T00:23:48.793Z,569.08
2023-03-22T00:24:00.795Z,569.04
2023-03-22T00:24:12.764Z,569.08
2023-03-22T00:24:24.744Z,569.07
2023-03-22T00:24:36.760Z,569.04
2023-03-22T00:24:48.761Z,569.11
2023-03-22T00:25:00.758Z,569.14
2023-03-22T00:25:12.742Z,569.31
2023-03-22T00:25:23.757Z,569.31
2023-03-22T00:25:35.785Z,569.35
2023-03-22T00:25:47.795Z,569.49
2023-03-22T00:25:59.768Z,569.57
2023-03-22T00:26:11.758Z,569.65
2023-03-22T00:26:23.759Z,569.60
2023-03-22T00:26:35.762Z,569.64
2023-03-22T00:26:47.743Z,569.69
2023-03-22T00:26:59.747Z,569.71
2023-03-22T00:27:11.799Z,569.74
2023-03-22T00:27:23.775Z,569.79
2023-03-22T00:27:35.773Z,569.73
2023-03-22T00:27:46.764Z,569.70
2023-03-22T00:27:58.772Z,569.76
2023-03-22T00:28:10.763Z,569.76
2023-03-22T00:28:21.765Z,569.77
2023-03-22T00:28:33.770Z,569.76
2023-03-22T00:28:44.779Z,569.70
2023-03-22T00:28:56.779Z,569.71
2023-03-22T00:29:08.790Z,569.68
2023-03-22T00:29:20.800Z,569.64
2023-03-22T00:29:32.813Z,569.56
2023-03-22T00:29:44.801Z,569.60
2023-03-22T00:29:56.817Z,569.75
2023-03-22T00:30:08.813Z,569.58
2023-03-22T00:30:20.724Z,569.63
2023-03-22T00:30:31.741Z,569.59
2023-03-22T00:30:42.758Z,569.52
2023-03-22T00:30:53.771Z,569.41
2023-03-22T00:31:05.823Z,569.39
2023-03-22T00:31:16.810Z,569.53
2023-03-22T00:31:27.802Z,569.76
2023-03-22T00:31:38.837Z,569.46
2023-03-22T00:31:50.849Z,569.29
2023-03-22T00:32:01.757Z,569.31
2023-03-22T00:32:13.769Z,569.27
2023-03-22T00:32:25.779Z,569.26
2023-03-22T00:32:37.762Z,569.26
2023-03-22T00:32:49.759Z,569.30
2023-03-22T00:33:01.765Z,569.38
2023-03-22T00:33:13.769Z,569.38
2023-03-22T00:33:25.742Z,569.48
2023-03-22T00:33:36.783Z,569.54
2023-03-22T00:33:48.771Z,569.50
2023-03-22T00:34:00.778Z,569.64
2023-03-22T00:34:12.779Z,569.78
2023-03-22T00:34:24.758Z,569.88
2023-03-22T00:34:35.786Z,570.02
2023-03-22T00:34:47.771Z,570.16
2023-03-22T00:34:59.750Z,570.15
2023-03-22T00:35:11.756Z,570.16
2023-03-22T00:35:23.798Z,570.19
2023-03-22T00:35:34.786Z,570.16
2023-03-22T00:35:45.831Z,570.12
2023-03-22T00:35:57.772Z,570.12
2023-03-22T00:36:08.848Z,570.12
2023-03-22T00:36:20.724Z,570.05
2023-03-22T00:36:31.725Z,569.93
2023-03-22T00:36:42.743Z,569.92
2023-03-22T00:36:53.747Z,569.82
2023-03-22T00:37:04.748Z,569.85
2023-03-22T00:37:16.746Z,569.91
2023-03-22T00:37:27.736Z,569.82
2023-03-22T00:37:38.808Z,569.83
2023-03-22T00:37:49.742Z,569.79
2023-03-22T00:38:01.760Z,569.62
2023-03-22T00:38:13.757Z,569.73
2023-03-22T00:38:35.941Z,569.82
2023-03-22T00:38:45.198Z,569.82
2023-03-22T00:38:48.702Z,569.91
2023-03-22T00:38:58.767Z,569.99
2023-03-22T00:39:10.778Z,569.98
2023-03-22T00:39:22.741Z,570.02
2023-03-22T00:39:34.759Z,570.00
2023-03-22T00:39:45.769Z,569.91
2023-03-22T00:39:57.770Z,569.97
2023-03-22T00:40:08.785Z,569.97
2023-03-22T00:40:20.800Z,569.99
2023-03-22T00:40:31.806Z,569.88
2023-03-22T00:40:43.785Z,569.99
2023-03-22T00:40:55.778Z,570.04
2023-03-22T00:41:07.785Z,570.00
2023-03-22T00:41:19.757Z,569.99
2023-03-22T00:41:31.764Z,569.94
2023-03-22T00:41:43.777Z,569.94
2023-03-22T00:41:54.790Z,570.01
2023-03-22T00:42:06.832Z,569.96
2023-03-22T00:42:18.808Z,569.95
2023-03-22T00:42:30.813Z,569.92
2023-03-22T00:42:42.794Z,569.92
2023-03-22T00:42:54.761Z,569.95
2023-03-22T00:43:05.782Z,570.00
2023-03-22T00:43:17.760Z,570.00
2023-03-22T00:43:29.758Z,570.10
2023-03-22T00:43:40.755Z,570.37
2023-03-22T00:43:52.761Z,570.51
2023-03-22T00:44:03.830Z,570.60
2023-03-22T00:44:15.805Z,570.59
2023-03-22T00:44:27.793Z,570.50
2023-03-22T00:44:39.771Z,570.44
2023-03-22T00:44:50.776Z,570.38
2023-03-22T00:45:02.759Z,570.37
2023-03-22T00:45:13.780Z,570.44
2023-03-22T00:45:25.743Z,570.41
2023-03-22T00:45:36.745Z,570.32
2023-03-22T00:45:47.770Z,570.28
2023-03-22T00:45:59.765Z,570.39
2023-03-22T00:46:10.870Z,570.32
2023-03-22T00:46:22.778Z,570.26
2023-03-22T00:46:34.804Z,570.26
2023-03-22T00:46:45.741Z,570.35
2023-03-22T00:46:56.780Z,570.30
2023-03-22T00:47:08.756Z,570.33
2023-03-22T00:47:20.754Z,570.45
2023-03-22T00:47:32.764Z,570.47
2023-03-22T00:47:43.797Z,570.48
2023-03-22T00:47:55.791Z,570.60
2023-03-22T00:48:07.818Z,570.56
2023-03-22T00:48:19.879Z,570.59
2023-03-22T00:48:31.774Z,570.62
2023-03-22T00:48:43.752Z,570.61
2023-03-22T00:48:54.769Z,570.64
2023-03-22T00:49:05.829Z,570.66
2023-03-22T00:49:17.798Z,570.64
2023-03-22T00:49:29.789Z,570.70
2023-03-22T00:49:41.800Z,570.66
2023-03-22T00:49:53.791Z,570.68
2023-03-22T00:50:05.792Z,570.61
2023-03-22T00:50:17.803Z,570.67
2023-03-22T00:50:29.777Z,570.75
2023-03-22T00:50:41.793Z,570.81
2023-03-22T00:50:53.752Z,570.86
2023-03-22T00:51:04.770Z,570.88
2023-03-22T00:51:16.769Z,570.87
2023-03-22T00:51:28.745Z,570.97
2023-03-22T00:51:39.756Z,570.95
2023-03-22T00:51:50.777Z,570.95
2023-03-22T00:52:01.781Z,570.98
2023-03-22T00:52:12.780Z,570.89
2023-03-22T00:52:24.774Z,570.91
2023-03-22T00:52:35.763Z,570.86
2023-03-22T00:52:47.798Z,570.93
2023-03-22T00:52:59.775Z,570.85
2023-03-22T00:53:11.777Z,570.94
2023-03-22T00:53:23.772Z,570.91
2023-03-22T00:53:35.759Z,570.82
2023-03-22T00:53:46.783Z,570.77
2023-03-22T00:53:58.778Z,570.78
2023-03-22T00:54:10.747Z,570.89
2023-03-22T00:54:22.756Z,570.96
2023-03-22T00:54:33.778Z,571.00
2023-03-22T00:54:44.776Z,570.98
2023-03-22T00:54:56.753Z,571.03
2023-03-22T00:55:07.758Z,571.06
2023-03-22T00:55:19.756Z,571.05
2023-03-22T00:55:30.769Z,571.07
2023-03-22T00:55:42.779Z,571.07
2023-03-22T00:55:54.758Z,571.09
2023-03-22T00:56:05.783Z,571.13
2023-03-22T00:56:17.774Z,571.11
2023-03-22T00:56:29.766Z,571.20
2023-03-22T00:56:40.766Z,571.16
2023-03-22T00:56:52.779Z,571.25
2023-03-22T00:57:04.792Z,571.33
2023-03-22T00:57:16.792Z,571.37
2023-03-22T00:57:28.765Z,571.43
2023-03-22T00:57:40.776Z,571.46
2023-03-22T00:57:52.751Z,571.50
2023-03-22T00:58:04.752Z,571.45
2023-03-22T00:58:15.773Z,571.37
2023-03-22T00:58:27.760Z,571.35
2023-03-22T00:58:38.760Z,571.25
2023-03-22T00:58:49.774Z,571.25
2023-03-22T00:59:01.778Z,571.30
2023-03-22T00:59:13.760Z,571.30
2023-03-22T00:59:24.802Z,571.28
2023-03-22T00:59:36.786Z,571.27
2023-03-22T00:59:48.785Z,571.34
2023-03-22T01:00:00.789Z,571.47
2023-03-22T01:11:29.747Z,572.51
2023-03-22T01:11:40.763Z,572.57
2023-03-22T01:11:51.755Z,572.68
2023-03-22T01:12:02.762Z,572.76
2023-03-22T01:12:13.783Z,572.75
2023-03-22T01:12:25.788Z,572.73
2023-03-22T01:12:36.783Z,572.70
2023-03-22T01:12:48.759Z,572.68
2023-03-22T01:12:59.769Z,572.62
2023-03-22T01:13:10.777Z,572.61
2023-03-22T01:13:21.790Z,572.59
2023-03-22T01:13:33.778Z,572.62
2023-03-22T01:13:45.800Z,572.54
2023-03-22T01:13:57.785Z,572.46
2023-03-22T01:14:08.786Z,572.47
2023-03-22T01:14:19.792Z,572.46
2023-03-22T01:14:30.802Z,572.49
2023-03-22T01:14:42.785Z,572.44
2023-03-22T01:14:53.787Z,572.42
2023-03-22T01:15:05.758Z,572.36
2023-03-22T01:15:16.773Z,572.41
2023-03-22T01:15:27.762Z,572.34
2023-03-22T01:15:38.756Z,572.27
2023-03-22T01:15:49.767Z,572.27
2023-03-22T01:16:00.776Z,572.25
2023-03-22T01:16:11.861Z,572.33
2023-03-22T01:16:23.859Z,572.32
2023-03-22T01:16:35.809Z,572.35
2023-03-22T01:16:46.774Z,572.43
2023-03-22T01:16:57.909Z,572.48
2023-03-22T01:17:09.836Z,572.59
2023-03-22T01:17:21.796Z,572.62
2023-03-22T01:17:33.768Z,572.72
2023-03-22T01:17:44.765Z,572.74
2023-03-22T01:17:55.764Z,572.81
2023-03-22T01:18:07.771Z,572.92
2023-03-22T01:18:19.749Z,572.93
2023-03-22T01:18:30.762Z,572.98
2023-03-22T01:18:41.774Z,573.04
2023-03-22T01:18:53.783Z,573.09
2023-03-22T01:19:04.801Z,573.08
2023-03-22T01:19:16.762Z,573.07
2023-03-22T01:19:27.763Z,573.12
2023-03-22T01:19:38.767Z,573.03
2023-03-22T01:19:49.765Z,573.01
2023-03-22T01:20:00.776Z,572.92
2023-03-22T01:20:11.775Z,572.87
2023-03-22T01:20:22.770Z,572.86
2023-03-22T01:20:33.775Z,572.79
2023-03-22T01:20:45.779Z,572.58
2023-03-22T01:20:57.795Z,572.46
2023-03-22T01:21:09.766Z,572.38
2023-03-22T01:21:20.777Z,572.35
2023-03-22T01:21:31.773Z,572.38
2023-03-22T01:21:42.769Z,572.49
2023-03-22T01:21:54.756Z,572.58
2023-03-22T01:22:05.743Z,572.67
2023-03-22T01:22:16.760Z,572.78
2023-03-22T01:22:27.766Z,572.76
2023-03-22T01:22:38.782Z,572.79
2023-03-22T01:22:49.771Z,572.76
2023-03-22T01:23:00.774Z,572.73
2023-03-22T01:23:11.770Z,572.74
2023-03-22T01:23:22.783Z,572.75
2023-03-22T01:23:33.776Z,572.75
2023-03-22T01:23:45.747Z,572.79
2023-03-22T01:23:56.745Z,572.88
2023-03-22T01:24:07.750Z,572.97
2023-03-22T01:24:18.771Z,572.99
2023-03-22T01:24:29.761Z,572.88
2023-03-22T01:24:40.782Z,572.93
2023-03-22T01:24:51.798Z,573.03
2023-03-22T01:25:02.823Z,573.14
2023-03-22T01:25:14.730Z,573.31
2023-03-22T01:25:25.730Z,573.43
2023-03-22T01:25:36.729Z,573.47
2023-03-22T01:25:47.836Z,573.42
2023-03-22T01:25:58.807Z,573.42
2023-03-22T01:26:10.781Z,573.32
2023-03-22T01:26:22.752Z,573.13
2023-03-22T01:26:33.779Z,572.97
2023-03-22T01:26:44.783Z,572.91
2023-03-22T01:26:55.800Z,572.84
2023-03-22T01:27:07.774Z,572.88
2023-03-22T01:27:19.762Z,572.99
2023-03-22T01:27:30.785Z,573.05
2023-03-22T01:27:42.768Z,573.19
2023-03-22T01:27:53.775Z,573.21
2023-03-22T01:28:04.784Z,573.13
2023-03-22T01:28:16.759Z,573.13
2023-03-22T01:28:27.759Z,573.04
2023-03-22T01:28:38.758Z,573.13
2023-03-22T01:28:49.780Z,573.33
2023-03-22T01:29:00.772Z,573.31
2023-03-22T01:29:12.775Z,573.16
2023-03-22T01:29:23.785Z,573.03
2023-03-22T01:29:35.758Z,573.03
2023-03-22T01:29:46.779Z,573.11
2023-03-22T01:29:57.772Z,573.16
2023-03-22T01:30:08.778Z,573.27
2023-03-22T01:30:20.778Z,573.38
2023-03-22T01:30:31.818Z,573.45
2023-03-22T01:30:43.876Z,573.41
2023-03-22T01:30:55.846Z,573.34
2023-03-22T01:31:06.986Z,573.44
2023-03-22T01:31:18.828Z,573.36
2023-03-22T01:31:30.809Z,573.44
2023-03-22T01:31:41.803Z,573.44
2023-03-22T01:31:53.775Z,573.48
2023-03-22T01:32:04.783Z,573.43
2023-03-22T01:32:15.798Z,573.43
2023-03-22T01:32:26.800Z,573.34
2023-03-22T01:32:38.801Z,573.09
2023-03-22T01:32:50.765Z,573.48
2023-03-22T01:33:01.771Z,573.84
2023-03-22T01:33:12.775Z,573.60
2023-03-22T01:33:23.779Z,573.33
2023-03-22T01:33:34.787Z,573.16
2023-03-22T01:33:45.802Z,573.18
2023-03-22T01:33:57.771Z,573.27
2023-03-22T01:34:08.759Z,573.36
2023-03-22T01:34:19.763Z,573.56
2023-03-22T01:34:30.757Z,573.61
2023-03-22T01:34:41.768Z,573.72
2023-03-22T01:34:52.782Z,573.73
2023-03-22T01:35:03.785Z,573.93
2023-03-22T01:35:15.780Z,574.07
2023-03-22T01:35:26.798Z,574.07
2023-03-22T01:35:38.806Z,573.93
2023-03-22T01:35:50.825Z,573.74
2023-03-22T01:36:01.852Z,573.71
2023-03-22T01:36:13.770Z,573.60
2023-03-22T01:36:24.772Z,573.71
2023-03-22T01:36:35.782Z,573.79
2023-03-22T01:36:46.787Z,573.84
2023-03-22T01:36:57.798Z,573.86
2023-03-22T01:37:09.762Z,573.97
2023-03-22T01:37:20.761Z,574.06
2023-03-22T01:37:31.770Z,573.96
2023-03-22T01:37:42.776Z,573.84
2023-03-22T01:37:53.782Z,573.67
2023-03-22T01:38:04.798Z,573.63
2023-03-22T01:38:15.791Z,573.59
2023-03-22T01:38:27.779Z,573.53
2023-03-22T01:38:38.796Z,573.50
2023-03-22T01:38:50.791Z,573.49
2023-03-22T01:39:01.796Z,573.40
2023-03-22T01:39:13.780Z,573.40
2023-03-22T01:39:24.794Z,573.39
2023-03-22T01:39:35.795Z,573.42
2023-03-22T01:39:47.770Z,573.45
2023-03-22T01:39:58.789Z,573.54
2023-03-22T01:40:09.789Z,573.65
2023-03-22T01:40:20.780Z,573.72
2023-03-22T01:40:31.779Z,573.79
2023-03-22T01:40:42.962Z,573.94
2023-03-22T01:40:53.840Z,574.07
2023-03-22T01:41:05.816Z,574.22
2023-03-22T01:41:17.766Z,574.12
2023-03-22T01:41:28.763Z,573.95
2023-03-22T01:41:39.800Z,573.77
2023-03-22T01:41:51.774Z,573.70
2023-03-22T01:42:03.796Z,573.73
2023-03-22T01:42:15.785Z,573.82
2023-03-22T01:42:27.761Z,573.89
2023-03-22T01:42:38.770Z,573.91
2023-03-22T01:42:49.781Z,573.92
2023-03-22T01:43:00.788Z,573.94
2023-03-22T01:43:11.801Z,573.92
2023-03-22T01:43:23.765Z,573.92
2023-03-22T01:43:35.757Z,574.01
2023-03-22T01:43:46.759Z,573.91
2023-03-22T01:43:57.733Z,573.91
2023-03-22T01:44:08.744Z,573.89
2023-03-22T01:44:19.767Z,573.90
2023-03-22T01:44:30.772Z,573.87
2023-03-22T01:44:42.766Z,573.81
2023-03-22T01:44:53.781Z,573.71
2023-03-22T01:45:04.774Z,573.64
2023-03-22T01:45:15.793Z,573.59
2023-03-22T01:45:26.775Z,573.65
2023-03-22T01:45:37.782Z,573.64
2023-03-22T01:45:49.807Z,573.68
2023-03-22T01:46:01.798Z,573.76
2023-03-22T01:46:13.828Z,573.79
2023-03-22T01:46:24.761Z,573.95
2023-03-22T01:46:36.895Z,574.11
2023-03-22T01:46:47.836Z,574.20
2023-03-22T01:46:59.797Z,574.22
2023-03-22T01:47:11.769Z,574.27
2023-03-22T01:47:22.780Z,574.43
2023-03-22T01:47:33.785Z,574.49
2023-03-22T01:47:45.849Z,574.55
2023-03-22T01:47:56.805Z,574.54
2023-03-22T01:48:08.811Z,574.51
2023-03-22T01:48:20.986Z,574.52
2023-03-22T01:48:32.804Z,574.48
2023-03-22T01:48:44.817Z,574.46
2023-03-22T01:48:56.826Z,574.45
2023-03-22T01:49:07.811Z,574.30
2023-03-22T01:49:19.866Z,574.34
2023-03-22T01:49:31.784Z,574.38
2023-03-22T01:49:43.765Z,574.38
2023-03-22T01:49:54.780Z,574.35
2023-03-22T01:50:05.780Z,574.35
2023-03-22T01:50:16.791Z,574.37
2023-03-22T01:50:28.779Z,574.40
2023-03-22T01:50:40.921Z,574.43
2023-03-22T01:50:51.746Z,574.38
2023-03-22T01:51:02.747Z,574.28
2023-03-22T01:51:13.781Z,574.32
2023-03-22T01:51:24.803Z,574.37
2023-03-22T01:51:36.780Z,574.37
2023-03-22T01:51:48.753Z,574.36
2023-03-22T01:51:59.773Z,574.34
2023-03-22T01:52:10.776Z,574.35
2023-03-22T01:52:21.773Z,574.42
2023-03-22T01:52:32.772Z,574.52
2023-03-22T01:52:44.761Z,574.45
2023-03-22T01:52:55.761Z,574.48
2023-03-22T01:53:06.769Z,574.51
2023-03-22T01:53:17.784Z,574.51
2023-03-22T01:53:28.785Z,574.52
2023-03-22T01:53:39.773Z,574.43
2023-03-22T01:53:50.770Z,574.40
2023-03-22T01:54:01.765Z,574.45
2023-03-22T01:54:12.764Z,574.46
2023-03-22T01:54:23.755Z,574.54
2023-03-22T01:54:34.753Z,574.61
2023-03-22T01:54:45.781Z,574.70
2023-03-22T01:54:56.787Z,574.72
2023-03-22T01:55:08.759Z,574.60
2023-03-22T01:55:19.763Z,574.54
2023-03-22T01:55:30.758Z,574.52
2023-03-22T01:55:41.760Z,574.53
2023-03-22T01:55:52.765Z,574.50
2023-03-22T01:56:03.799Z,574.65
2023-03-22T01:56:15.762Z,574.89
2023-03-22T01:56:27.774Z,574.87
2023-03-22T01:56:39.794Z,574.82
2023-03-22T01:56:51.790Z,574.99
2023-03-22T01:57:02.779Z,575.05
2023-03-22T01:57:13.775Z,574.97
2023-03-22T01:57:24.771Z,574.87
2023-03-22T01:57:35.767Z,574.97
2023-03-22T01:57:47.770Z,575.15
2023-03-22T01:57:58.772Z,575.18
2023-03-22T01:58:09.766Z,575.18
2023-03-22T01:58:20.768Z,575.24
2023-03-22T01:58:32.752Z,575.25
2023-03-22T01:58:43.748Z,575.27
2023-03-22T01:58:54.774Z,575.30
2023-03-22T01:59:05.765Z,575.29
2023-03-22T01:59:16.752Z,575.36
2023-03-22T01:59:27.764Z,575.34
2023-03-22T01:59:38.754Z,575.28
2023-03-22T01:59:49.750Z,575.24
2023-03-22T02:00:00.788Z,575.10
2023-03-22T02:00:12.753Z,574.98
2023-03-22T02:00:23.754Z,575.04
2023-03-22T02:00:34.748Z,574.96
2023-03-22T02:00:45.745Z,574.89
2023-03-22T02:00:56.774Z,574.81
2023-03-22T02:01:07.812Z,574.77
2023-03-22T02:01:19.827Z,574.71
2023-03-22T02:01:31.833Z,574.70
2023-03-22T02:01:43.744Z,574.65
2023-03-22T02:01:54.758Z,574.66
2023-03-22T02:02:06.769Z,574.68
2023-03-22T02:02:17.810Z,574.65
2023-03-22T02:02:29.790Z,574.59
2023-03-22T02:02:41.815Z,574.61
2023-03-22T02:02:53.890Z,574.65
2023-03-22T02:03:05.789Z,574.69
2023-03-22T02:03:17.764Z,574.73
2023-03-22T02:03:29.792Z,574.76
2023-03-22T02:03:41.755Z,574.79
2023-03-22T02:03:52.800Z,574.78
2023-03-22T02:04:03.805Z,574.71
2023-03-22T02:04:15.764Z,574.65
2023-03-22T02:04:26.758Z,574.65
2023-03-22T02:04:38.760Z,574.73
2023-03-22T02:04:50.783Z,574.81
2023-03-22T02:05:02.755Z,574.85
2023-03-22T02:05:13.767Z,574.87
2023-03-22T02:05:24.777Z,574.74
2023-03-22T02:05:36.773Z,574.67
2023-03-22T02:05:48.765Z,574.67
2023-03-22T02:05:59.785Z,574.75
2023-03-22T02:06:11.763Z,574.76
2023-03-22T02:06:22.765Z,574.72
2023-03-22T02:06:33.787Z,574.56
2023-03-22T02:06:45.767Z,574.41
2023-03-22T02:06:56.743Z,574.47
2023-03-22T02:07:07.740Z,574.55
2023-03-22T02:07:18.736Z,574.64
2023-03-22T02:07:29.735Z,574.76
2023-03-22T02:07:40.749Z,574.85
2023-03-22T02:07:51.746Z,574.72
2023-03-22T02:08:02.765Z,574.71
2023-03-22T02:08:13.775Z,574.83
2023-03-22T02:08:24.770Z,574.88
2023-03-22T02:08:35.798Z,574.82
2023-03-22T02:08:47.762Z,575.19
2023-03-22T02:08:59.759Z,575.35
2023-03-22T02:09:10.758Z,574.99
2023-03-22T02:09:21.765Z,574.99
2023-03-22T02:09:32.784Z,575.08
2023-03-22T02:09:43.785Z,575.09
2023-03-22T02:09:54.813Z,575.10
2023-03-22T02:10:06.770Z,575.00
2023-03-22T02:10:17.775Z,574.98
2023-03-22T02:10:28.782Z,575.27
2023-03-22T02:10:41.018Z,575.37
2023-03-22T02:10:52.773Z,575.26
2023-03-22T02:11:03.774Z,575.29
2023-03-22T02:11:14.776Z,575.32
2023-03-22T02:11:26.755Z,575.22
2023-03-22T02:11:37.771Z,575.28
2023-03-22T02:11:49.762Z,575.28
2023-03-22T02:12:00.773Z,575.26
2023-03-22T02:12:11.778Z,575.32
2023-03-22T02:12:22.773Z,575.24
2023-03-22T02:12:34.761Z,575.22
2023-03-22T02:12:45.777Z,575.26
2023-03-22T02:12:56.788Z,575.20
2023-03-22T02:13:07.806Z,575.04
2023-03-22T02:13:19.778Z,575.07
2023-03-22T02:13:30.793Z,575.06
2023-03-22T02:13:42.802Z,575.03
2023-03-22T02:13:54.767Z,575.07
2023-03-22T02:14:05.780Z,575.13
2023-03-22T02:14:17.753Z,575.12
2023-03-22T02:14:28.756Z,575.09
2023-03-22T02:14:39.771Z,575.00
2023-03-22T02:14:50.773Z,574.97
2023-03-22T02:15:01.781Z,575.00
2023-03-22T02:15:12.786Z,575.05
2023-03-22T02:15:23.788Z,575.24
2023-03-22T02:15:34.813Z,575.52
2023-03-22T02:15:46.912Z,575.50
2023-03-22T02:15:58.894Z,575.33
2023-03-22T02:16:10.929Z,575.13
2023-03-22T02:16:21.773Z,575.31
2023-03-22T02:16:33.760Z,575.25
2023-03-22T02:16:44.762Z,575.25
2023-03-22T02:16:55.781Z,575.24
2023-03-22T02:17:07.790Z,575.28
2023-03-22T02:17:19.786Z,575.37
2023-03-22T02:17:30.780Z,575.33
2023-03-22T02:17:41.786Z,575.27
2023-03-22T02:17:53.774Z,575.36
2023-03-22T02:18:04.768Z,575.38
2023-03-22T02:18:16.773Z,575.45
2023-03-22T02:18:27.769Z,575.52
2023-03-22T02:18:38.780Z,575.64
2023-03-22T02:18:49.787Z,575.73
2023-03-22T02:19:01.798Z,575.73
2023-03-22T02:19:13.814Z,575.69
2023-03-22T02:19:25.775Z,575.80
2023-03-22T02:19:36.769Z,575.83
2023-03-22T02:19:48.768Z,575.78
2023-03-22T02:19:59.776Z,575.66
2023-03-22T02:20:10.788Z,575.69
2023-03-22T02:20:22.772Z,575.74
2023-03-22T02:20:33.788Z,575.85
2023-03-22T02:20:44.797Z,575.75
2023-03-22T02:20:56.785Z,575.71
2023-03-22T02:21:07.801Z,575.71
2023-03-22T02:21:19.784Z,575.65
2023-03-22T02:21:30.791Z,575.62
2023-03-22T02:21:42.784Z,575.70
2023-03-22T02:21:53.778Z,575.77
2023-03-22T02:22:04.798Z,575.85
2023-03-22T02:22:16.796Z,575.88
2023-03-22T02:22:28.792Z,575.84
2023-03-22T02:22:40.767Z,575.88
2023-03-22T02:22:51.775Z,575.98
2023-03-22T02:23:02.781Z,576.02
2023-03-22T02:23:13.788Z,576.05
2023-03-22T02:23:24.805Z,576.18
2023-03-22T02:23:36.798Z,576.32
2023-03-22T02:23:48.764Z,576.41
2023-03-22T02:23:59.791Z,576.39
2023-03-22T02:24:11.786Z,576.20
2023-03-22T02:24:23.756Z,575.97
2023-03-22T02:24:34.755Z,575.85
2023-03-22T02:24:45.761Z,575.76
2023-03-22T02:24:56.777Z,575.71
2023-03-22T02:25:07.781Z,575.66
2023-03-22T02:25:19.769Z,575.69
2023-03-22T02:25:30.806Z,575.73
2023-03-22T02:25:42.795Z,575.62
2023-03-22T02:25:54.774Z,575.59
2023-03-22T02:26:06.907Z,575.60
2023-03-22T02:26:18.796Z,575.59
2023-03-22T02:26:30.771Z,575.64
2023-03-22T02:26:42.772Z,575.63
2023-03-22T02:26:53.778Z,575.70
2023-03-22T02:27:04.802Z,575.79
2023-03-22T02:27:16.789Z,575.93
2023-03-22T02:27:27.795Z,576.03
2023-03-22T02:27:39.761Z,576.07
2023-03-22T02:27:51.757Z,576.06
2023-03-22T02:28:02.783Z,575.98
2023-03-22T02:28:14.782Z,575.92
2023-03-22T02:28:25.781Z,575.90
2023-03-22T02:28:36.773Z,575.81
2023-03-22T02:28:48.780Z,575.70
2023-03-22T02:28:59.784Z,575.66
2023-03-22T02:29:10.790Z,575.71
2023-03-22T02:29:22.773Z,575.75
2023-03-22T02:29:34.766Z,575.87
2023-03-22T02:29:46.778Z,576.04
2023-03-22T02:29:58.755Z,576.21
2023-03-22T02:30:10.733Z,576.37
2023-03-22T02:30:21.784Z,576.65
2023-03-22T02:30:32.791Z,576.84
2023-03-22T02:30:44.768Z,576.88
2023-03-22T02:30:55.833Z,576.69
2023-03-22T02:31:06.786Z,576.56
2023-03-22T02:31:17.788Z,576.38
2023-03-22T02:31:28.774Z,576.22
2023-03-22T02:31:39.738Z,576.03
2023-03-22T02:31:50.737Z,575.86
2023-03-22T02:32:01.762Z,575.74
2023-03-22T02:32:12.745Z,575.62
2023-03-22T02:32:23.768Z,575.43
2023-03-22T02:32:34.762Z,575.31
2023-03-22T02:32:45.768Z,575.14
2023-03-22T02:32:57.752Z,575.00
2023-03-22T02:33:08.750Z,574.88
2023-03-22T02:33:19.768Z,574.75
2023-03-22T02:33:30.766Z,574.68
2023-03-22T02:33:41.862Z,574.60
2023-03-22T02:33:52.767Z,574.59
2023-03-22T02:34:03.758Z,574.62
2023-03-22T02:34:15.769Z,574.75
2023-03-22T02:34:26.761Z,574.89
2023-03-22T02:34:37.778Z,575.03
2023-03-22T02:34:49.777Z,575.19